sensor_id;sensor_type;location;lat;lon;timestamp;temperature;humidity
15257;DHT22;7731;50.720;6.912;2023-08-17T00:01:55;20.00;99.90
15257;DHT22;7731;50.720;6.912;2023-08-17T00:04:26;20.00;99.90
15257;DHT22;7731;50.720;6.912;2023-08-17T00:06:56;20.00;99.90
15257;DHT22;7731;50.720;6.912;2023-08-17T00:09:32;20.00;99.90
15257;DHT22;7731;50.720;6.912;2023-08-17T00:12:02;19.90;99.90
15257;DHT22;7731;50.720;6.912;2023-08-17T00:14:33;20.10;99.90
15257;DHT22;7731;50.720;6.912;2023-08-17T00:17:04;20.10;99.90
15257;DHT22;7731;50.720;6.912;2023-08-17T00:19:37;20.10;99.90
15257;DHT22;7731;50.720;6.912;2023-08-17T00:22:10;20.10;99.90
15257;DHT22;7731;50.720;6.912;2023-08-17T00:24:43;20.10;99.90
15257;DHT22;7731;50.720;6.912;2023-08-17T00:27:14;20.10;99.90
15257;DHT22;7731;50.720;6.912;2023-08-17T00:29:53;20.10;99.90
15257;DHT22;7731;50.720;6.912;2023-08-17T00:32:23;20.10;99.90
15257;DHT22;7731;50.720;6.912;2023-08-17T00:34:53;20.10;99.90
15257;DHT22;7731;50.720;6.912;2023-08-17T00:37:23;20.20;99.90
15257;DHT22;7731;50.720;6.912;2023-08-17T00:40:05;20.30;99.90
15257;DHT22;7731;50.720;6.912;2023-08-17T00:42:37;20.20;99.90
15257;DHT22;7731;50.720;6.912;2023-08-17T00:45:08;20.10;99.90
15257;DHT22;7731;50.720;6.912;2023-08-17T00:47:39;20.10;99.90
15257;DHT22;7731;50.720;6.912;2023-08-17T00:50:10;20.10;99.90
15257;DHT22;7731;50.720;6.912;2023-08-17T00:52:44;20.10;99.90
15257;DHT22;7731;50.720;6.912;2023-08-17T00:55:24;20.10;99.90
15257;DHT22;7731;50.720;6.912;2023-08-17T00:57:56;20.10;99.90
15257;DHT22;7731;50.720;6.912;2023-08-17T01:00:32;20.00;99.90
15257;DHT22;7731;50.720;6.912;2023-08-17T01:03:03;20.00;99.90
15257;DHT22;7731;50.720;6.912;2023-08-17T01:05:34;19.90;99.90
15257;DHT22;7731;50.720;6.912;2023-08-17T01:08:05;19.90;99.90
15257;DHT22;7731;50.720;6.912;2023-08-17T01:10:43;19.90;99.90
15257;DHT22;7731;50.720;6.912;2023-08-17T01:13:24;19.90;99.90
15257;DHT22;7731;50.720;6.912;2023-08-17T01:16:02;19.90;99.90
15257;DHT22;7731;50.720;6.912;2023-08-17T01:18:37;19.90;99.90
15257;DHT22;7731;50.720;6.912;2023-08-17T01:21:17;20.00;99.90
15257;DHT22;7731;50.720;6.912;2023-08-17T01:23:57;19.90;99.90
15257;DHT22;7731;50.720;6.912;2023-08-17T01:26:30;20.00;99.90
15257;DHT22;7731;50.720;6.912;2023-08-17T01:29:01;19.90;99.90
15257;DHT22;7731;50.720;6.912;2023-08-17T01:31:35;19.90;99.90
15257;DHT22;7731;50.720;6.912;2023-08-17T01:34:14;19.90;99.90
15257;DHT22;7731;50.720;6.912;2023-08-17T01:36:53;19.90;99.90
15257;DHT22;7731;50.720;6.912;2023-08-17T01:39:36;20.10;99.90
15257;DHT22;7731;50.720;6.912;2023-08-17T01:42:12;20.00;99.90
15257;DHT22;7731;50.720;6.912;2023-08-17T01:44:45;20.20;99.90
15257;DHT22;7731;50.720;6.912;2023-08-17T01:47:20;20.20;99.90
15257;DHT22;7731;50.720;6.912;2023-08-17T01:49:54;20.10;99.90
15257;DHT22;7731;50.720;6.912;2023-08-17T01:52:27;20.10;99.90
15257;DHT22;7731;50.720;6.912;2023-08-17T01:55:01;20.00;99.90
15257;DHT22;7731;50.720;6.912;2023-08-17T01:57:31;20.10;99.90
15257;DHT22;7731;50.720;6.912;2023-08-17T02:00:03;20.10;99.90
15257;DHT22;7731;50.720;6.912;2023-08-17T02:02:37;20.10;99.90
15257;DHT22;7731;50.720;6.912;2023-08-17T02:05:08;20.20;99.90
15257;DHT22;7731;50.720;6.912;2023-08-17T02:07:39;20.10;99.90
15257;DHT22;7731;50.720;6.912;2023-08-17T02:10:15;20.10;99.90
15257;DHT22;7731;50.720;6.912;2023-08-17T02:12:45;20.00;99.90
15257;DHT22;7731;50.720;6.912;2023-08-17T02:15:30;20.00;99.90
15257;DHT22;7731;50.720;6.912;2023-08-17T02:18:01;19.90;99.90
15257;DHT22;7731;50.720;6.912;2023-08-17T02:20:31;19.90;99.90
15257;DHT22;7731;50.720;6.912;2023-08-17T02:23:04;19.90;99.90
15257;DHT22;7731;50.720;6.912;2023-08-17T02:25:48;19.90;99.90
15257;DHT22;7731;50.720;6.912;2023-08-17T02:28:21;19.90;99.90
15257;DHT22;7731;50.720;6.912;2023-08-17T02:30:55;19.90;99.90
15257;DHT22;7731;50.720;6.912;2023-08-17T02:33:27;19.90;99.90
15257;DHT22;7731;50.720;6.912;2023-08-17T02:35:57;20.10;99.90
15257;DHT22;7731;50.720;6.912;2023-08-17T02:38:37;20.30;99.90
15257;DHT22;7731;50.720;6.912;2023-08-17T02:41:10;20.30;99.90
15257;DHT22;7731;50.720;6.912;2023-08-17T02:43:45;20.30;99.90
15257;DHT22;7731;50.720;6.912;2023-08-17T02:46:15;20.30;99.90
15257;DHT22;7731;50.720;6.912;2023-08-17T02:48:57;20.30;99.90
15257;DHT22;7731;50.720;6.912;2023-08-17T02:51:27;20.10;99.90
15257;DHT22;7731;50.720;6.912;2023-08-17T02:53:59;20.10;99.90
15257;DHT22;7731;50.720;6.912;2023-08-17T02:56:35;20.10;99.90
15257;DHT22;7731;50.720;6.912;2023-08-17T02:59:08;20.00;99.90
15257;DHT22;7731;50.720;6.912;2023-08-17T03:01:39;19.90;99.90
15257;DHT22;7731;50.720;6.912;2023-08-17T03:04:10;19.80;99.90
15257;DHT22;7731;50.720;6.912;2023-08-17T03:06:41;19.70;99.90
15257;DHT22;7731;50.720;6.912;2023-08-17T03:09:11;19.80;99.90
15257;DHT22;7731;50.720;6.912;2023-08-17T03:11:54;19.70;99.90
15257;DHT22;7731;50.720;6.912;2023-08-17T03:14:27;19.60;99.90
15257;DHT22;7731;50.720;6.912;2023-08-17T03:16:58;19.50;99.90
15257;DHT22;7731;50.720;6.912;2023-08-17T03:19:28;19.40;99.90
15257;DHT22;7731;50.720;6.912;2023-08-17T03:22:01;19.40;99.90
15257;DHT22;7731;50.720;6.912;2023-08-17T03:24:31;19.50;99.90
15257;DHT22;7731;50.720;6.912;2023-08-17T03:27:04;19.60;99.90
15257;DHT22;7731;50.720;6.912;2023-08-17T03:29:34;19.60;99.90
15257;DHT22;7731;50.720;6.912;2023-08-17T03:32:07;19.60;99.90
15257;DHT22;7731;50.720;6.912;2023-08-17T03:34:37;19.50;99.90
15257;DHT22;7731;50.720;6.912;2023-08-17T03:37:08;19.60;99.90
15257;DHT22;7731;50.720;6.912;2023-08-17T03:39:38;19.70;99.90
15257;DHT22;7731;50.720;6.912;2023-08-17T03:42:13;19.60;99.90
15257;DHT22;7731;50.720;6.912;2023-08-17T03:44:46;19.50;99.90
15257;DHT22;7731;50.720;6.912;2023-08-17T03:47:17;19.50;99.90
15257;DHT22;7731;50.720;6.912;2023-08-17T03:49:48;19.50;99.90
15257;DHT22;7731;50.720;6.912;2023-08-17T03:52:20;19.50;99.90
15257;DHT22;7731;50.720;6.912;2023-08-17T03:54:51;19.40;99.90
15257;DHT22;7731;50.720;6.912;2023-08-17T03:57:24;19.40;99.90
15257;DHT22;7731;50.720;6.912;2023-08-17T03:59:54;19.50;99.90
15257;DHT22;7731;50.720;6.912;2023-08-17T04:02:25;19.50;99.90
15257;DHT22;7731;50.720;6.912;2023-08-17T04:04:55;19.50;99.90
15257;DHT22;7731;50.720;6.912;2023-08-17T04:07:25;19.50;99.90
15257;DHT22;7731;50.720;6.912;2023-08-17T04:09:59;19.50;99.90
15257;DHT22;7731;50.720;6.912;2023-08-17T04:12:32;19.40;99.90
15257;DHT22;7731;50.720;6.912;2023-08-17T04:15:03;19.40;99.90
15257;DHT22;7731;50.720;6.912;2023-08-17T04:17:37;19.40;99.90
15257;DHT22;7731;50.720;6.912;2023-08-17T04:20:09;19.30;99.90
15257;DHT22;7731;50.720;6.912;2023-08-17T04:22:40;19.30;99.90
15257;DHT22;7731;50.720;6.912;2023-08-17T04:25:10;19.30;99.90
15257;DHT22;7731;50.720;6.912;2023-08-17T04:27:51;19.20;99.90
15257;DHT22;7731;50.720;6.912;2023-08-17T04:30:23;19.10;99.90
15257;DHT22;7731;50.720;6.912;2023-08-17T04:32:54;19.10;99.90
15257;DHT22;7731;50.720;6.912;2023-08-17T04:35:24;19.20;99.90
15257;DHT22;7731;50.720;6.912;2023-08-17T04:37:54;19.20;99.90
15257;DHT22;7731;50.720;6.912;2023-08-17T04:40:24;19.10;99.90
15257;DHT22;7731;50.720;6.912;2023-08-17T04:42:59;19.10;99.90
15257;DHT22;7731;50.720;6.912;2023-08-17T04:45:30;19.10;99.90
15257;DHT22;7731;50.720;6.912;2023-08-17T04:48:04;19.10;99.90
15257;DHT22;7731;50.720;6.912;2023-08-17T04:50:35;19.10;99.90
15257;DHT22;7731;50.720;6.912;2023-08-17T04:53:08;19.10;99.90
15257;DHT22;7731;50.720;6.912;2023-08-17T04:55:38;19.10;99.90
15257;DHT22;7731;50.720;6.912;2023-08-17T04:58:17;19.00;99.90
15257;DHT22;7731;50.720;6.912;2023-08-17T05:00:47;19.00;99.90
15257;DHT22;7731;50.720;6.912;2023-08-17T05:03:18;18.90;99.90
15257;DHT22;7731;50.720;6.912;2023-08-17T05:05:59;18.80;99.90
15257;DHT22;7731;50.720;6.912;2023-08-17T05:08:42;18.80;99.90
15257;DHT22;7731;50.720;6.912;2023-08-17T05:11:12;18.80;99.90
15257;DHT22;7731;50.720;6.912;2023-08-17T05:13:52;18.70;99.90
15257;DHT22;7731;50.720;6.912;2023-08-17T05:16:23;18.90;99.90
15257;DHT22;7731;50.720;6.912;2023-08-17T05:18:53;18.80;99.90
15257;DHT22;7731;50.720;6.912;2023-08-17T05:21:25;18.90;99.90
15257;DHT22;7731;50.720;6.912;2023-08-17T05:23:59;18.90;99.90
15257;DHT22;7731;50.720;6.912;2023-08-17T05:26:29;18.90;99.90
15257;DHT22;7731;50.720;6.912;2023-08-17T05:29:02;19.10;99.90
15257;DHT22;7731;50.720;6.912;2023-08-17T05:31:33;19.30;99.90
15257;DHT22;7731;50.720;6.912;2023-08-17T05:34:07;19.30;99.90
15257;DHT22;7731;50.720;6.912;2023-08-17T05:36:40;19.30;99.90
15257;DHT22;7731;50.720;6.912;2023-08-17T05:39:19;19.20;99.90
15257;DHT22;7731;50.720;6.912;2023-08-17T05:41:59;19.30;99.90
15257;DHT22;7731;50.720;6.912;2023-08-17T05:44:35;19.40;99.90
15257;DHT22;7731;50.720;6.912;2023-08-17T05:47:06;19.30;99.90
15257;DHT22;7731;50.720;6.912;2023-08-17T05:49:39;19.20;99.90
15257;DHT22;7731;50.720;6.912;2023-08-17T05:52:12;19.20;99.90
15257;DHT22;7731;50.720;6.912;2023-08-17T05:54:42;19.20;99.90
15257;DHT22;7731;50.720;6.912;2023-08-17T05:57:12;19.30;99.90
15257;DHT22;7731;50.720;6.912;2023-08-17T05:59:45;19.20;99.90
15257;DHT22;7731;50.720;6.912;2023-08-17T06:02:16;19.10;99.90
15257;DHT22;7731;50.720;6.912;2023-08-17T06:04:47;19.10;99.90
15257;DHT22;7731;50.720;6.912;2023-08-17T06:07:20;19.00;99.90
15257;DHT22;7731;50.720;6.912;2023-08-17T06:09:50;19.10;99.90
15257;DHT22;7731;50.720;6.912;2023-08-17T06:12:21;19.00;99.90
15257;DHT22;7731;50.720;6.912;2023-08-17T06:14:56;19.00;99.90
15257;DHT22;7731;50.720;6.912;2023-08-17T06:17:26;19.10;99.90
15257;DHT22;7731;50.720;6.912;2023-08-17T06:19:57;19.40;99.90
15257;DHT22;7731;50.720;6.912;2023-08-17T06:22:33;19.60;99.90
15257;DHT22;7731;50.720;6.912;2023-08-17T06:25:04;19.50;99.90
15257;DHT22;7731;50.720;6.912;2023-08-17T06:27:35;19.30;99.90
15257;DHT22;7731;50.720;6.912;2023-08-17T06:30:13;19.30;99.90
15257;DHT22;7731;50.720;6.912;2023-08-17T06:32:44;19.40;99.90
15257;DHT22;7731;50.720;6.912;2023-08-17T06:35:14;19.60;99.90
15257;DHT22;7731;50.720;6.912;2023-08-17T06:37:47;19.50;99.90
15257;DHT22;7731;50.720;6.912;2023-08-17T06:40:18;19.40;99.90
15257;DHT22;7731;50.720;6.912;2023-08-17T06:42:49;19.40;99.90
15257;DHT22;7731;50.720;6.912;2023-08-17T06:45:31;19.60;99.90
15257;DHT22;7731;50.720;6.912;2023-08-17T06:48:02;19.80;99.90
15257;DHT22;7731;50.720;6.912;2023-08-17T06:50:32;19.60;99.90
15257;DHT22;7731;50.720;6.912;2023-08-17T06:53:04;19.50;99.90
15257;DHT22;7731;50.720;6.912;2023-08-17T06:55:34;19.60;99.90
15257;DHT22;7731;50.720;6.912;2023-08-17T06:58:05;19.60;99.90
15257;DHT22;7731;50.720;6.912;2023-08-17T07:00:54;19.70;99.90
15257;DHT22;7731;50.720;6.912;2023-08-17T07:03:24;19.70;99.90
15257;DHT22;7731;50.720;6.912;2023-08-17T07:05:54;19.80;99.90
15257;DHT22;7731;50.720;6.912;2023-08-17T07:08:28;19.90;99.90
15257;DHT22;7731;50.720;6.912;2023-08-17T07:11:00;19.90;99.90
15257;DHT22;7731;50.720;6.912;2023-08-17T07:13:32;20.10;99.90
15257;DHT22;7731;50.720;6.912;2023-08-17T07:16:08;20.40;99.90
15257;DHT22;7731;50.720;6.912;2023-08-17T07:18:46;20.20;99.90
15257;DHT22;7731;50.720;6.912;2023-08-17T07:21:23;20.10;99.90
15257;DHT22;7731;50.720;6.912;2023-08-17T07:23:54;20.00;99.90
15257;DHT22;7731;50.720;6.912;2023-08-17T07:26:25;20.00;99.90
15257;DHT22;7731;50.720;6.912;2023-08-17T07:28:55;20.20;99.90
15257;DHT22;7731;50.720;6.912;2023-08-17T07:31:28;20.10;99.90
15257;DHT22;7731;50.720;6.912;2023-08-17T07:34:00;20.30;99.90
15257;DHT22;7731;50.720;6.912;2023-08-17T07:36:34;20.10;99.90
15257;DHT22;7731;50.720;6.912;2023-08-17T07:39:04;20.00;99.90
15257;DHT22;7731;50.720;6.912;2023-08-17T07:41:38;20.10;99.90
15257;DHT22;7731;50.720;6.912;2023-08-17T07:44:08;20.30;99.90
15257;DHT22;7731;50.720;6.912;2023-08-17T07:46:41;20.30;99.90
15257;DHT22;7731;50.720;6.912;2023-08-17T07:49:11;20.10;99.90
15257;DHT22;7731;50.720;6.912;2023-08-17T07:51:56;20.10;99.90
15257;DHT22;7731;50.720;6.912;2023-08-17T07:54:26;20.00;99.90
15257;DHT22;7731;50.720;6.912;2023-08-17T07:56:57;20.10;99.90
15257;DHT22;7731;50.720;6.912;2023-08-17T07:59:32;20.20;99.90
15257;DHT22;7731;50.720;6.912;2023-08-17T08:02:06;20.30;99.90
15257;DHT22;7731;50.720;6.912;2023-08-17T08:04:36;20.20;99.90
15257;DHT22;7731;50.720;6.912;2023-08-17T08:07:09;20.40;99.90
15257;DHT22;7731;50.720;6.912;2023-08-17T08:09:40;20.40;99.90
15257;DHT22;7731;50.720;6.912;2023-08-17T08:12:10;20.50;99.90
15257;DHT22;7731;50.720;6.912;2023-08-17T08:14:41;20.70;99.90
15257;DHT22;7731;50.720;6.912;2023-08-17T08:17:13;21.10;99.90
15257;DHT22;7731;50.720;6.912;2023-08-17T08:19:44;21.00;99.90
15257;DHT22;7731;50.720;6.912;2023-08-17T08:22:14;21.20;99.90
15257;DHT22;7731;50.720;6.912;2023-08-17T08:24:49;21.00;99.90
15257;DHT22;7731;50.720;6.912;2023-08-17T08:27:22;21.10;99.90
15257;DHT22;7731;50.720;6.912;2023-08-17T08:29:53;21.20;99.90
15257;DHT22;7731;50.720;6.912;2023-08-17T08:32:26;21.10;99.90
15257;DHT22;7731;50.720;6.912;2023-08-17T08:34:57;21.20;99.90
15257;DHT22;7731;50.720;6.912;2023-08-17T08:37:29;21.20;99.90
15257;DHT22;7731;50.720;6.912;2023-08-17T08:40:17;21.40;99.90
15257;DHT22;7731;50.720;6.912;2023-08-17T08:42:47;21.60;99.90
15257;DHT22;7731;50.720;6.912;2023-08-17T08:45:22;21.70;99.90
15257;DHT22;7731;50.720;6.912;2023-08-17T08:47:57;22.00;99.90
15257;DHT22;7731;50.720;6.912;2023-08-17T08:50:31;22.20;99.90
15257;DHT22;7731;50.720;6.912;2023-08-17T08:53:10;22.30;99.90
15257;DHT22;7731;50.720;6.912;2023-08-17T08:55:47;22.40;99.90
15257;DHT22;7731;50.720;6.912;2023-08-17T08:58:31;22.50;99.90
15257;DHT22;7731;50.720;6.912;2023-08-17T09:01:03;22.70;99.90
15257;DHT22;7731;50.720;6.912;2023-08-17T09:03:39;22.90;99.90
15257;DHT22;7731;50.720;6.912;2023-08-17T09:06:23;22.50;99.90
15257;DHT22;7731;50.720;6.912;2023-08-17T09:08:57;22.80;99.90
15257;DHT22;7731;50.720;6.912;2023-08-17T09:11:28;22.80;99.90
15257;DHT22;7731;50.720;6.912;2023-08-17T09:13:58;22.50;99.90
15257;DHT22;7731;50.720;6.912;2023-08-17T09:16:29;22.20;99.90
15257;DHT22;7731;50.720;6.912;2023-08-17T09:19:02;22.30;99.90
15257;DHT22;7731;50.720;6.912;2023-08-17T09:21:38;22.60;99.90
15257;DHT22;7731;50.720;6.912;2023-08-17T09:24:09;22.30;99.90
15257;DHT22;7731;50.720;6.912;2023-08-17T09:26:42;22.40;99.90
15257;DHT22;7731;50.720;6.912;2023-08-17T09:29:19;22.40;99.90
15257;DHT22;7731;50.720;6.912;2023-08-17T09:31:53;22.40;99.90
15257;DHT22;7731;50.720;6.912;2023-08-17T09:34:30;22.50;99.90
15257;DHT22;7731;50.720;6.912;2023-08-17T09:37:04;22.50;99.90
15257;DHT22;7731;50.720;6.912;2023-08-17T09:39:35;22.70;99.90
15257;DHT22;7731;50.720;6.912;2023-08-17T09:42:05;22.60;99.90
15257;DHT22;7731;50.720;6.912;2023-08-17T09:44:34;22.40;99.90
15257;DHT22;7731;50.720;6.912;2023-08-17T09:47:06;22.50;99.90
15257;DHT22;7731;50.720;6.912;2023-08-17T09:49:41;22.50;99.90
15257;DHT22;7731;50.720;6.912;2023-08-17T09:52:12;22.50;99.90
15257;DHT22;7731;50.720;6.912;2023-08-17T09:54:43;22.80;99.90
15257;DHT22;7731;50.720;6.912;2023-08-17T09:57:16;22.80;99.90
15257;DHT22;7731;50.720;6.912;2023-08-17T09:59:49;23.20;99.90
15257;DHT22;7731;50.720;6.912;2023-08-17T10:02:23;23.00;99.90
15257;DHT22;7731;50.720;6.912;2023-08-17T10:04:58;22.70;99.90
15257;DHT22;7731;50.720;6.912;2023-08-17T10:07:31;22.60;99.90
15257;DHT22;7731;50.720;6.912;2023-08-17T10:10:09;22.50;99.90
15257;DHT22;7731;50.720;6.912;2023-08-17T10:12:44;22.70;99.90
15257;DHT22;7731;50.720;6.912;2023-08-17T10:15:18;22.70;99.90
15257;DHT22;7731;50.720;6.912;2023-08-17T10:17:58;22.70;99.90
15257;DHT22;7731;50.720;6.912;2023-08-17T10:20:53;22.60;99.90
15257;DHT22;7731;50.720;6.912;2023-08-17T10:23:29;22.70;99.90
15257;DHT22;7731;50.720;6.912;2023-08-17T10:26:01;22.60;99.90
15257;DHT22;7731;50.720;6.912;2023-08-17T10:28:32;22.50;99.90
15257;DHT22;7731;50.720;6.912;2023-08-17T10:31:03;22.40;99.90
15257;DHT22;7731;50.720;6.912;2023-08-17T10:33:38;22.40;99.90
15257;DHT22;7731;50.720;6.912;2023-08-17T10:36:16;22.50;99.90
15257;DHT22;7731;50.720;6.912;2023-08-17T10:39:17;22.30;99.90
15257;DHT22;7731;50.720;6.912;2023-08-17T10:41:54;22.10;99.90
15257;DHT22;7731;50.720;6.912;2023-08-17T10:44:42;22.20;99.90
15257;DHT22;7731;50.720;6.912;2023-08-17T10:47:24;22.10;99.90
15257;DHT22;7731;50.720;6.912;2023-08-17T10:50:04;21.90;99.90
15257;DHT22;7731;50.720;6.912;2023-08-17T10:52:42;21.90;99.90
15257;DHT22;7731;50.720;6.912;2023-08-17T10:55:15;21.70;99.90
15257;DHT22;7731;50.720;6.912;2023-08-17T10:57:46;21.70;99.90
15257;DHT22;7731;50.720;6.912;2023-08-17T11:00:18;21.80;99.90
15257;DHT22;7731;50.720;6.912;2023-08-17T11:02:55;21.80;99.90
15257;DHT22;7731;50.720;6.912;2023-08-17T11:05:40;21.80;99.90
15257;DHT22;7731;50.720;6.912;2023-08-17T11:08:21;22.10;99.90
15257;DHT22;7731;50.720;6.912;2023-08-17T11:11:04;22.20;99.90
15257;DHT22;7731;50.720;6.912;2023-08-17T11:13:37;22.20;99.90
15257;DHT22;7731;50.720;6.912;2023-08-17T11:16:09;22.20;99.90
15257;DHT22;7731;50.720;6.912;2023-08-17T11:18:45;22.40;99.90
15257;DHT22;7731;50.720;6.912;2023-08-17T11:21:19;22.50;99.90
15257;DHT22;7731;50.720;6.912;2023-08-17T11:24:06;22.60;99.90
15257;DHT22;7731;50.720;6.912;2023-08-17T11:26:39;22.90;99.90
15257;DHT22;7731;50.720;6.912;2023-08-17T11:29:16;22.80;99.90
15257;DHT22;7731;50.720;6.912;2023-08-17T11:31:49;22.70;99.90
15257;DHT22;7731;50.720;6.912;2023-08-17T11:34:20;22.90;99.90
15257;DHT22;7731;50.720;6.912;2023-08-17T11:36:50;22.90;99.90
15257;DHT22;7731;50.720;6.912;2023-08-17T11:39:32;23.10;99.90
15257;DHT22;7731;50.720;6.912;2023-08-17T11:42:04;23.10;99.90
15257;DHT22;7731;50.720;6.912;2023-08-17T11:44:38;23.10;99.90
15257;DHT22;7731;50.720;6.912;2023-08-17T11:47:08;23.10;99.90
15257;DHT22;7731;50.720;6.912;2023-08-17T11:49:40;23.10;99.90
15257;DHT22;7731;50.720;6.912;2023-08-17T11:52:11;22.80;99.90
15257;DHT22;7731;50.720;6.912;2023-08-17T11:54:44;22.80;99.90
15257;DHT22;7731;50.720;6.912;2023-08-17T12:00:51;22.60;99.90
15257;DHT22;7731;50.720;6.912;2023-08-17T12:03:24;22.50;99.90
15257;DHT22;7731;50.720;6.912;2023-08-17T12:05:55;22.50;99.90
15257;DHT22;7731;50.720;6.912;2023-08-17T12:08:27;22.30;99.90
15257;DHT22;7731;50.720;6.912;2023-08-17T12:11:03;22.20;99.90
15257;DHT22;7731;50.720;6.912;2023-08-17T12:13:34;22.30;99.90
15257;DHT22;7731;50.720;6.912;2023-08-17T12:16:17;22.40;99.90
15257;DHT22;7731;50.720;6.912;2023-08-17T12:18:50;22.70;99.90
15257;DHT22;7731;50.720;6.912;2023-08-17T12:21:21;23.20;99.90
15257;DHT22;7731;50.720;6.912;2023-08-17T12:23:52;23.70;99.90
15257;DHT22;7731;50.720;6.912;2023-08-17T12:26:25;24.30;99.90
15257;DHT22;7731;50.720;6.912;2023-08-17T12:29:05;24.80;99.90
15257;DHT22;7731;50.720;6.912;2023-08-17T12:31:38;25.70;99.90
15257;DHT22;7731;50.720;6.912;2023-08-17T12:34:09;26.00;99.90
15257;DHT22;7731;50.720;6.912;2023-08-17T12:36:40;26.10;99.90
15257;DHT22;7731;50.720;6.912;2023-08-17T12:39:13;26.30;99.90
15257;DHT22;7731;50.720;6.912;2023-08-17T12:41:46;26.00;99.90
15257;DHT22;7731;50.720;6.912;2023-08-17T12:44:17;25.80;99.90
15257;DHT22;7731;50.720;6.912;2023-08-17T12:46:47;25.80;99.90
15257;DHT22;7731;50.720;6.912;2023-08-17T12:49:18;25.50;99.90
15257;DHT22;7731;50.720;6.912;2023-08-17T12:51:48;25.60;99.90
15257;DHT22;7731;50.720;6.912;2023-08-17T12:54:27;25.60;99.90
15257;DHT22;7731;50.720;6.912;2023-08-17T12:57:13;26.40;99.90
15257;DHT22;7731;50.720;6.912;2023-08-17T12:59:46;26.50;99.90
15257;DHT22;7731;50.720;6.912;2023-08-17T13:02:16;26.70;99.90
15257;DHT22;7731;50.720;6.912;2023-08-17T13:04:47;26.70;99.90
15257;DHT22;7731;50.720;6.912;2023-08-17T13:07:17;26.60;99.90
15257;DHT22;7731;50.720;6.912;2023-08-17T13:09:50;26.70;99.90
15257;DHT22;7731;50.720;6.912;2023-08-17T13:12:23;26.40;99.90
15257;DHT22;7731;50.720;6.912;2023-08-17T13:14:54;26.30;99.90
15257;DHT22;7731;50.720;6.912;2023-08-17T13:17:24;26.70;99.90
15257;DHT22;7731;50.720;6.912;2023-08-17T13:19:55;26.80;99.90
15257;DHT22;7731;50.720;6.912;2023-08-17T13:22:25;27.10;99.90
15257;DHT22;7731;50.720;6.912;2023-08-17T13:24:56;27.30;96.20
15257;DHT22;7731;50.720;6.912;2023-08-17T13:27:29;27.00;99.90
15257;DHT22;7731;50.720;6.912;2023-08-17T13:30:00;27.20;99.90
15257;DHT22;7731;50.720;6.912;2023-08-17T13:32:30;27.00;99.90
15257;DHT22;7731;50.720;6.912;2023-08-17T13:35:01;27.00;99.90
15257;DHT22;7731;50.720;6.912;2023-08-17T13:37:31;27.20;94.00
15257;DHT22;7731;50.720;6.912;2023-08-17T13:40:02;27.30;62.20
15257;DHT22;7731;50.720;6.912;2023-08-17T13:42:36;27.00;76.10
15257;DHT22;7731;50.720;6.912;2023-08-17T13:45:10;26.90;83.30
15257;DHT22;7731;50.720;6.912;2023-08-17T13:47:43;26.70;98.80
15257;DHT22;7731;50.720;6.912;2023-08-17T13:50:13;27.10;90.10
15257;DHT22;7731;50.720;6.912;2023-08-17T13:52:45;27.00;83.90
15257;DHT22;7731;50.720;6.912;2023-08-17T13:55:22;27.30;77.00
15257;DHT22;7731;50.720;6.912;2023-08-17T13:58:05;27.70;34.70
15257;DHT22;7731;50.720;6.912;2023-08-17T14:00:43;27.60;28.70
15257;DHT22;7731;50.720;6.912;2023-08-17T14:03:13;27.30;55.30
15257;DHT22;7731;50.720;6.912;2023-08-17T14:05:43;27.00;83.10
15257;DHT22;7731;50.720;6.912;2023-08-17T14:08:14;27.00;88.60
15257;DHT22;7731;50.720;6.912;2023-08-17T14:10:44;26.90;96.10
15257;DHT22;7731;50.720;6.912;2023-08-17T14:13:17;26.80;74.20
15257;DHT22;7731;50.720;6.912;2023-08-17T14:15:47;26.90;90.90
15257;DHT22;7731;50.720;6.912;2023-08-17T14:18:18;27.00;84.80
15257;DHT22;7731;50.720;6.912;2023-08-17T14:20:48;26.90;88.90
15257;DHT22;7731;50.720;6.912;2023-08-17T14:23:18;26.90;89.00
15257;DHT22;7731;50.720;6.912;2023-08-17T14:25:49;27.00;56.60
15257;DHT22;7731;50.720;6.912;2023-08-17T14:28:24;26.90;49.90
15257;DHT22;7731;50.720;6.912;2023-08-17T14:30:57;26.70;54.20
15257;DHT22;7731;50.720;6.912;2023-08-17T14:33:27;26.40;88.40
15257;DHT22;7731;50.720;6.912;2023-08-17T14:35:58;26.00;99.90
15257;DHT22;7731;50.720;6.912;2023-08-17T14:38:35;26.20;99.90
15257;DHT22;7731;50.720;6.912;2023-08-17T14:41:06;26.60;99.90
15257;DHT22;7731;50.720;6.912;2023-08-17T14:43:39;26.90;93.90
15257;DHT22;7731;50.720;6.912;2023-08-17T14:46:09;27.10;91.60
15257;DHT22;7731;50.720;6.912;2023-08-17T14:48:41;26.90;94.10
15257;DHT22;7731;50.720;6.912;2023-08-17T14:51:12;26.90;90.70
15257;DHT22;7731;50.720;6.912;2023-08-17T14:53:42;26.70;99.90
15257;DHT22;7731;50.720;6.912;2023-08-17T14:56:12;26.90;98.30
15257;DHT22;7731;50.720;6.912;2023-08-17T14:58:45;27.10;80.60
15257;DHT22;7731;50.720;6.912;2023-08-17T15:01:16;27.00;97.50
15257;DHT22;7731;50.720;6.912;2023-08-17T15:03:46;27.10;94.10
15257;DHT22;7731;50.720;6.912;2023-08-17T15:06:17;27.00;99.90
15257;DHT22;7731;50.720;6.912;2023-08-17T15:09:00;26.70;99.90
15257;DHT22;7731;50.720;6.912;2023-08-17T15:11:31;26.50;99.90
15257;DHT22;7731;50.720;6.912;2023-08-17T15:14:07;26.50;99.90
15257;DHT22;7731;50.720;6.912;2023-08-17T15:16:42;26.40;99.90
15257;DHT22;7731;50.720;6.912;2023-08-17T15:19:15;26.30;99.90
15257;DHT22;7731;50.720;6.912;2023-08-17T15:22:05;26.20;99.90
15257;DHT22;7731;50.720;6.912;2023-08-17T15:24:44;26.00;99.90
15257;DHT22;7731;50.720;6.912;2023-08-17T15:27:21;26.00;99.90
15257;DHT22;7731;50.720;6.912;2023-08-17T15:29:54;25.90;99.90
15257;DHT22;7731;50.720;6.912;2023-08-17T15:32:25;25.80;99.90
15257;DHT22;7731;50.720;6.912;2023-08-17T15:34:55;25.90;99.90
15257;DHT22;7731;50.720;6.912;2023-08-17T15:37:28;26.10;99.90
15257;DHT22;7731;50.720;6.912;2023-08-17T15:40:07;26.10;99.90
15257;DHT22;7731;50.720;6.912;2023-08-17T15:46:28;26.70;96.10
15257;DHT22;7731;50.720;6.912;2023-08-17T15:48:58;26.90;88.50
15257;DHT22;7731;50.720;6.912;2023-08-17T15:51:29;26.60;95.20
15257;DHT22;7731;50.720;6.912;2023-08-17T15:53:59;26.40;99.90
15257;DHT22;7731;50.720;6.912;2023-08-17T15:56:29;26.20;99.90
15257;DHT22;7731;50.720;6.912;2023-08-17T15:59:03;26.10;99.90
15257;DHT22;7731;50.720;6.912;2023-08-17T16:01:36;26.00;99.90
15257;DHT22;7731;50.720;6.912;2023-08-17T16:04:12;25.90;99.90
15257;DHT22;7731;50.720;6.912;2023-08-17T16:06:45;25.90;99.90
15257;DHT22;7731;50.720;6.912;2023-08-17T16:09:15;25.80;99.90
15257;DHT22;7731;50.720;6.912;2023-08-17T16:11:52;25.80;99.90
15257;DHT22;7731;50.720;6.912;2023-08-17T16:14:25;25.80;99.90
15257;DHT22;7731;50.720;6.912;2023-08-17T16:17:01;25.70;99.90
15257;DHT22;7731;50.720;6.912;2023-08-17T16:19:34;25.60;99.90
15257;DHT22;7731;50.720;6.912;2023-08-17T16:22:04;25.50;99.90
15257;DHT22;7731;50.720;6.912;2023-08-17T16:24:46;25.60;99.90
15257;DHT22;7731;50.720;6.912;2023-08-17T16:27:19;25.60;99.90
15257;DHT22;7731;50.720;6.912;2023-08-17T16:29:50;25.50;99.90
15257;DHT22;7731;50.720;6.912;2023-08-17T16:32:24;25.40;99.90